Cold Spring, Nevada
Current Conditions -  °F | °C
As of 7:56 PM on Friday 24 Oct 2014 (Local Time) from KNFL Reporting Station
Few Clouds Few Clouds  
Wind Chill: 57°   Ceiling: Unl
Heat Index: 57°   Visibility: 10mi
Dew Point: 29°   Wind: 3mph
Humidity: 34%   Direction: 40°NE
Pressure: 29.92"   Gusts: NA
Location:  39.5809°N, 118.333°W
Report Text: KNFL 250256Z 04003KT 10SM FEW220 14/M02 A2992 RMK AO2 SLP106 T01391017 53004
Loading
Personal Weather Stations






























Interactive Weather Map
Tropical Storm Tracking
New forecast layout! Learn more

10-Day Weather Forecast

Advertisements
Track Severe Weather on mobile